createdAt,value
2023-01-22T00:01:21.047Z,99995.13
2023-01-22T00:03:49.673Z,99992.78
2023-01-22T00:06:17.424Z,99989.72
2023-01-22T00:08:46.646Z,100004.19
2023-01-22T00:11:15.840Z,100013.59
2023-01-22T00:13:43.968Z,100014.78
2023-01-22T00:16:16.624Z,100030.69
2023-01-22T00:18:44.630Z,100039.31
2023-01-22T00:21:13.557Z,100044.53
2023-01-22T00:23:41.655Z,100045.19
2023-01-22T00:26:15.729Z,100050.28
2023-01-22T00:28:45.809Z,100035.97
2023-01-22T00:31:16.093Z,100044.50
2023-01-22T00:33:45.512Z,100044.50
2023-01-22T00:36:19.135Z,100048.25
2023-01-22T00:38:50.412Z,100035.88
2023-01-22T00:41:20.225Z,100029.47
2023-01-22T00:43:50.028Z,100025.28
2023-01-22T00:46:18.884Z,100038.25
2023-01-22T00:48:49.475Z,100047.47
2023-01-22T00:51:17.566Z,100067.63
2023-01-22T00:53:45.950Z,100069.38
2023-01-22T00:56:15.277Z,100060.16
2023-01-22T00:58:43.732Z,100069.56
2023-01-22T01:01:14.699Z,100068.59
2023-01-22T01:03:43.156Z,100055.81
2023-01-22T01:06:19.778Z,100070.66
2023-01-22T01:08:49.364Z,100062.50
2023-01-22T01:11:23.144Z,100064.84
2023-01-22T01:13:52.837Z,100069.75
2023-01-22T01:16:26.815Z,100065.94
2023-01-22T01:19:05.515Z,100068.59
2023-01-22T01:21:35.141Z,100072.00
2023-01-22T01:24:03.840Z,100077.81
2023-01-22T01:26:33.505Z,100077.41
2023-01-22T01:29:04.882Z,100068.59
2023-01-22T01:31:32.851Z,100074.66
2023-01-22T01:34:01.152Z,100068.59
2023-01-22T01:36:47.739Z,100075.97
2023-01-22T01:39:16.798Z,100090.72
2023-01-22T01:41:44.773Z,100093.56
2023-01-22T01:44:19.706Z,100087.34
2023-01-22T01:47:28.414Z,100083.72
2023-01-22T01:49:56.397Z,100085.88
2023-01-22T01:52:24.660Z,100088.25
2023-01-22T01:54:56.535Z,100085.06
2023-01-22T01:57:29.773Z,100082.13
2023-01-22T01:59:59.244Z,100083.22
2023-01-22T02:02:27.045Z,100082.94
2023-01-22T02:04:56.283Z,100082.13
2023-01-22T02:07:24.246Z,100089.59
2023-01-22T02:09:52.228Z,100093.84
2023-01-22T02:12:19.913Z,100096.88
2023-01-22T02:14:50.700Z,100092.34
2023-01-22T02:17:22.782Z,100098.94
2023-01-22T02:19:52.428Z,100098.94
2023-01-22T02:22:23.951Z,100106.31
2023-01-22T02:24:51.968Z,100106.91
2023-01-22T02:27:19.933Z,100101.59
2023-01-22T02:29:49.619Z,100096.09
2023-01-22T02:32:18.164Z,100091.56
2023-01-22T02:34:46.747Z,100093.94
2023-01-22T02:37:14.477Z,100092.06
2023-01-22T02:39:43.065Z,100102.38
2023-01-22T02:42:11.130Z,100097.66
2023-01-22T02:44:42.178Z,100091.56
2023-01-22T02:47:10.348Z,100100.31
2023-01-22T02:49:38.525Z,100094.72
2023-01-22T02:52:06.826Z,100094.91
2023-01-22T02:54:35.839Z,100090.78
2023-01-22T02:57:03.690Z,100098.16
2023-01-22T02:59:31.627Z,100089.38
2023-01-22T03:01:59.806Z,100104.53
2023-01-22T03:04:29.325Z,100107.38
2023-01-22T03:06:57.253Z,100105.50
2023-01-22T03:09:28.556Z,100105.69
2023-01-22T03:11:56.598Z,100107.56
2023-01-22T03:14:47.707Z,100104.91
2023-01-22T03:17:36.141Z,100111.22
2023-01-22T03:20:23.846Z,100102.75
2023-01-22T03:22:51.467Z,100101.19
2023-01-22T03:25:20.700Z,100114.56
2023-01-22T03:28:07.822Z,100113.75
2023-01-22T03:30:36.834Z,100114.09
2023-01-22T03:33:04.440Z,100122.81
2023-01-22T03:35:32.552Z,100118.47
2023-01-22T03:38:14.979Z,100123.00
2023-01-22T03:40:43.363Z,100123.59
2023-01-22T03:43:11.433Z,100120.06
2023-01-22T03:45:39.497Z,100123.97
2023-01-22T03:48:11.788Z,100133.41
2023-01-22T03:50:41.895Z,100130.47
2023-01-22T03:53:09.627Z,100130.66
2023-01-22T03:55:37.703Z,100131.13
2023-01-22T03:58:05.659Z,100151.00
2023-01-22T04:00:33.817Z,100145.41
2023-01-22T04:03:04.717Z,100139.88
2023-01-22T04:05:38.619Z,100127.22
2023-01-22T04:08:06.783Z,100135.09
2023-01-22T04:10:36.121Z,100133.34
2023-01-22T04:13:04.315Z,100129.91
2023-01-22T04:15:32.996Z,100127.72
2023-01-22T04:18:05.768Z,100135.41
2023-01-22T04:20:48.720Z,100130.88
2023-01-22T04:23:33.108Z,100147.19
2023-01-22T04:26:02.970Z,100150.72
2023-01-22T04:28:31.155Z,100163.88
2023-01-22T04:31:00.587Z,100172.38
2023-01-22T04:33:51.057Z,100182.97
2023-01-22T04:36:28.997Z,100177.06
2023-01-22T04:38:57.035Z,100180.81
2023-01-22T04:41:25.056Z,100189.84
2023-01-22T04:43:53.685Z,100196.75
2023-01-22T04:46:24.749Z,100203.88
2023-01-22T04:48:53.040Z,100195.44
2023-01-22T04:51:20.990Z,100195.16
2023-01-22T04:53:48.687Z,100170.97
2023-01-22T04:56:18.381Z,100168.81
2023-01-22T04:58:46.769Z,100188.69
2023-01-22T05:01:15.994Z,100201.44
2023-01-22T05:03:44.570Z,100212.84
2023-01-22T05:06:12.431Z,100239.41
2023-01-22T05:08:40.278Z,100226.72
2023-01-22T05:11:09.914Z,100229.94
2023-01-22T05:13:49.785Z,100234.19
2023-01-22T05:16:18.612Z,100221.41
2023-01-22T05:18:46.130Z,100235.16
2023-01-22T05:21:14.009Z,100234.56
2023-01-22T05:23:41.629Z,100255.72
2023-01-22T05:30:16.231Z,100264.16
2023-01-22T05:32:58.612Z,100262.00
2023-01-22T05:35:28.066Z,100275.28
2023-01-22T05:37:57.190Z,100283.75
2023-01-22T05:40:25.712Z,100282.66
2023-01-22T05:42:54.122Z,100275.19
2023-01-22T05:45:22.998Z,100273.81
2023-01-22T05:48:20.016Z,100274.13
2023-01-22T05:50:56.568Z,100277.53
2023-01-22T05:53:24.345Z,100290.53
2023-01-22T05:56:19.756Z,100310.69
2023-01-22T06:02:39.156Z,100315.09
2023-01-22T06:05:35.594Z,100318.03
2023-01-22T06:08:07.392Z,100317.25
2023-01-22T06:10:42.845Z,100324.84
2023-01-22T06:13:10.814Z,100329.28
2023-01-22T06:15:39.454Z,100331.53
2023-01-22T06:18:30.037Z,100337.91
2023-01-22T06:21:03.515Z,100351.47
2023-01-22T06:23:31.989Z,100357.56
2023-01-22T06:26:28.312Z,100351.38
2023-01-22T06:29:09.619Z,100369.09
2023-01-22T06:32:28.646Z,100386.31
2023-01-22T06:35:55.316Z,100382.19
2023-01-22T06:38:24.607Z,100376.06
2023-01-22T06:40:54.259Z,100374.41
2023-01-22T06:43:24.069Z,100395.56
2023-01-22T06:45:52.725Z,100398.72
2023-01-22T06:48:24.400Z,100398.34
2023-01-22T06:50:52.054Z,100408.59
2023-01-22T06:53:19.961Z,100413.13
2023-01-22T06:56:09.029Z,100409.94
2023-01-22T06:58:46.773Z,100409.47
2023-01-22T07:01:49.478Z,100412.59
2023-01-22T07:04:20.194Z,100407.28
2023-01-22T07:07:00.097Z,100425.78
2023-01-22T07:09:28.154Z,100421.59
2023-01-22T07:11:57.466Z,100429.84
2023-01-22T07:14:36.402Z,100430.91
2023-01-22T07:17:05.138Z,100429.63
2023-01-22T07:19:33.047Z,100436.50
2023-01-22T07:22:00.603Z,100429.06
2023-01-22T07:24:31.646Z,100429.25
2023-01-22T07:27:21.098Z,100426.81
2023-01-22T07:30:30.245Z,100433.38
2023-01-22T07:33:23.829Z,100438.13
2023-01-22T07:36:12.888Z,100439.78
2023-01-22T07:39:08.469Z,100455.44
2023-01-22T07:41:36.429Z,100460.97
2023-01-22T07:44:12.138Z,100457.22
2023-01-22T07:46:40.366Z,100460.34
2023-01-22T07:49:07.975Z,100457.63
2023-01-22T07:51:36.334Z,100463.34
2023-01-22T07:54:04.095Z,100466.50
2023-01-22T07:56:31.998Z,100472.81
2023-01-22T07:58:59.908Z,100483.13
2023-01-22T08:01:27.936Z,100486.56
2023-01-22T08:03:57.276Z,100490.91
2023-01-22T08:06:25.122Z,100493.84
2023-01-22T08:08:52.751Z,100497.38
2023-01-22T08:11:20.519Z,100497.38
2023-01-22T08:13:48.109Z,100496.03
2023-01-22T08:16:15.961Z,100500.97
2023-01-22T08:18:43.691Z,100511.91
2023-01-22T08:21:11.727Z,100519.94
2023-01-22T08:23:39.328Z,100521.75
2023-01-22T08:26:07.093Z,100520.75
2023-01-22T08:28:34.631Z,100521.53
2023-01-22T08:31:03.966Z,100518.84
2023-01-22T08:33:49.941Z,100524.28
2023-01-22T08:36:17.809Z,100532.28
2023-01-22T08:38:45.223Z,100539.47
2023-01-22T08:41:13.659Z,100531.19
2023-01-22T08:43:41.182Z,100546.19
2023-01-22T08:46:09.095Z,100548.94
2023-01-22T08:48:36.657Z,100544.50
2023-01-22T08:51:04.710Z,100543.84
2023-01-22T08:53:32.262Z,100538.28
2023-01-22T08:56:01.743Z,100539.09
2023-01-22T08:58:29.224Z,100544.50
2023-01-22T09:00:57.285Z,100548.03
2023-01-22T09:03:25.026Z,100546.16
2023-01-22T09:05:52.937Z,100567.16
2023-01-22T09:08:21.649Z,100567.97
2023-01-22T09:10:49.555Z,100571.03
2023-01-22T09:13:17.112Z,100583.22
2023-01-22T09:15:44.910Z,100572.56
2023-01-22T09:18:12.402Z,100579.50
2023-01-22T09:20:40.183Z,100571.81
2023-01-22T09:23:07.911Z,100574.16
2023-01-22T09:25:35.776Z,100573.59
2023-01-22T09:28:07.246Z,100580.47
2023-01-22T09:30:36.294Z,100584.22
2023-01-22T09:33:03.838Z,100579.50
2023-01-22T09:35:31.696Z,100575.75
2023-01-22T09:37:59.243Z,100574.75
2023-01-22T09:40:44.541Z,100570.81
2023-01-22T09:43:45.769Z,100572.09
2023-01-22T09:46:25.229Z,100572.09
2023-01-22T09:49:02.575Z,100576.72
2023-01-22T09:51:30.737Z,100576.53
2023-01-22T09:54:01.232Z,100573.56
2023-01-22T09:56:59.217Z,100568.06
2023-01-22T09:59:47.817Z,100575.53
2023-01-22T10:02:31.541Z,100573.97
2023-01-22T10:05:39.299Z,100577.97
2023-01-22T10:08:23.032Z,100588.34
2023-01-22T10:10:52.178Z,100586.78
2023-01-22T10:13:34.506Z,100586.16
2023-01-22T10:16:03.042Z,100583.69
2023-01-22T10:19:12.451Z,100583.13
2023-01-22T10:21:53.786Z,100588.72
2023-01-22T10:24:22.054Z,100609.22
2023-01-22T10:26:55.475Z,100604.09
2023-01-22T10:29:34.573Z,100594.47
2023-01-22T10:32:15.617Z,100609.25
2023-01-22T10:34:43.813Z,100612.38
2023-01-22T10:37:18.058Z,100627.78
2023-01-22T10:39:50.865Z,100618.53
2023-01-22T10:42:23.255Z,100625.97
2023-01-22T10:45:09.668Z,100622.84
2023-01-22T10:47:37.526Z,100616.25
2023-01-22T10:50:15.097Z,100613.59
2023-01-22T10:52:50.304Z,100614.16
2023-01-22T10:55:25.147Z,100609.63
2023-01-22T10:58:07.689Z,100611.41
2023-01-22T11:00:51.539Z,100604.94
2023-01-22T11:03:28.783Z,100604.84
2023-01-22T11:06:21.228Z,100604.44
2023-01-22T11:09:07.447Z,100598.59
2023-01-22T11:11:47.428Z,100609.47
2023-01-22T11:14:35.514Z,100613.19
2023-01-22T11:17:29.444Z,100622.75
2023-01-22T11:20:11.723Z,100621.94
2023-01-22T11:22:43.689Z,100616.97
2023-01-22T11:25:12.536Z,100629.69
2023-01-22T11:28:12.450Z,100624.38
2023-01-22T11:31:09.050Z,100624.38
2023-01-22T11:34:18.874Z,100620.81
2023-01-22T11:37:11.622Z,100606.72
2023-01-22T11:39:47.600Z,100610.56
2023-01-22T11:42:45.547Z,100606.94
2023-01-22T11:45:47.605Z,100605.06
2023-01-22T11:48:48.674Z,100605.97
2023-01-22T11:51:39.841Z,100615.94
2023-01-22T11:54:23.052Z,100601.53
2023-01-22T11:57:25.541Z,100605.28
2023-01-22T12:00:43.276Z,100614.66
2023-01-22T12:03:51.770Z,100615.56
2023-01-22T12:06:43.662Z,100606.59
2023-01-22T12:09:17.877Z,100607.84
2023-01-22T12:12:22.956Z,100611.19
2023-01-22T12:15:19.217Z,100610.59
2023-01-22T12:18:01.870Z,100614.56
2023-01-22T12:21:07.997Z,100616.19
2023-01-22T12:23:57.050Z,100611.38
2023-01-22T12:26:32.024Z,100613.88
2023-01-22T12:29:39.190Z,100616.94
2023-01-22T12:32:11.040Z,100624.31
2023-01-22T12:34:50.190Z,100624.09
2023-01-22T12:37:23.429Z,100630.72
2023-01-22T12:40:30.029Z,100632.81
2023-01-22T12:43:07.014Z,100626.22
2023-01-22T12:46:12.242Z,100628.50
2023-01-22T12:49:10.960Z,100630.97
2023-01-22T12:51:49.866Z,100623.47
2023-01-22T12:54:36.519Z,100618.31
2023-01-22T12:57:26.641Z,100632.59
2023-01-22T12:59:58.674Z,100637.34
2023-01-22T13:02:35.826Z,100634.09
2023-01-22T13:05:33.059Z,100635.38
2023-01-22T13:08:20.742Z,100644.25
2023-01-22T13:11:06.515Z,100645.72
2023-01-22T13:14:14.825Z,100645.72
2023-01-22T13:16:59.619Z,100647.72
2023-01-22T13:19:36.110Z,100650.19
2023-01-22T13:22:04.777Z,100657.16
2023-01-22T13:24:33.061Z,100647.72
2023-01-22T13:27:03.400Z,100656.59
2023-01-22T13:29:37.704Z,100659.34
2023-01-22T13:32:17.472Z,100673.25
2023-01-22T13:34:45.265Z,100684.31
2023-01-22T13:37:27.644Z,100689.34
2023-01-22T13:39:55.167Z,100700.00
2023-01-22T13:42:27.389Z,100688.56
2023-01-22T13:44:56.793Z,100691.69
2023-01-22T13:47:34.428Z,100691.81
2023-01-22T13:50:03.720Z,100683.72
2023-01-22T13:52:33.724Z,100688.16
2023-01-22T13:55:06.954Z,100695.16
2023-01-22T13:57:34.821Z,100700.47
2023-01-22T14:00:05.224Z,100702.38
2023-01-22T14:02:36.199Z,100698.78
2023-01-22T14:05:04.738Z,100710.22
2023-01-22T14:07:38.459Z,100714.94
2023-01-22T14:10:24.245Z,100702.00
2023-01-22T14:13:06.084Z,100703.03
2023-01-22T14:16:13.377Z,100701.63
2023-01-22T14:18:50.442Z,100704.28
2023-01-22T14:21:18.079Z,100707.25
2023-01-22T14:23:48.987Z,100708.34
2023-01-22T14:26:16.812Z,100706.25
2023-01-22T14:29:03.459Z,100708.44
2023-01-22T14:31:31.132Z,100708.25
2023-01-22T14:33:58.963Z,100718.06
2023-01-22T14:36:26.709Z,100711.19
2023-01-22T14:38:55.488Z,100715.13
2023-01-22T14:41:23.409Z,100714.34
2023-01-22T14:43:51.184Z,100713.31
2023-01-22T14:46:18.877Z,100710.19
2023-01-22T14:48:47.243Z,100714.22
2023-01-22T14:51:14.871Z,100717.66
2023-01-22T14:53:43.735Z,100715.00
2023-01-22T14:56:11.197Z,100718.44
2023-01-22T14:58:39.311Z,100716.59
2023-01-22T15:01:17.970Z,100714.50
2023-01-22T15:03:47.037Z,100715.38
2023-01-22T15:06:14.825Z,100718.81
2023-01-22T15:08:42.790Z,100716.25
2023-01-22T15:11:10.429Z,100709.94
2023-01-22T15:13:38.463Z,100708.34
2023-01-22T15:16:09.541Z,100711.00
2023-01-22T15:18:39.880Z,100712.59
2023-01-22T15:21:08.374Z,100712.59
2023-01-22T15:23:36.667Z,100722.66
2023-01-22T15:26:09.964Z,100727.97
2023-01-22T15:28:38.574Z,100718.41
2023-01-22T15:31:08.086Z,100715.75
2023-01-22T15:33:37.533Z,100731.72
2023-01-22T15:36:07.117Z,100738.22
2023-01-22T15:38:35.460Z,100726.25
2023-01-22T15:42:09.609Z,100740.88
2023-01-22T15:44:39.539Z,100735.09
2023-01-22T15:47:08.366Z,100740.22
2023-01-22T15:49:37.052Z,100744.47
2023-01-22T15:52:05.197Z,100737.84
2023-01-22T15:54:33.571Z,100739.94
2023-01-22T15:57:01.758Z,100744.97
2023-01-22T15:59:30.513Z,100744.19
2023-01-22T16:01:58.255Z,100751.66
2023-01-22T16:04:26.347Z,100759.13
2023-01-22T16:06:53.994Z,100756.75
2023-01-22T16:09:22.112Z,100764.03
2023-01-22T16:11:57.450Z,100760.38
2023-01-22T16:14:25.626Z,100760.66
2023-01-22T16:16:54.627Z,100767.78
2023-01-22T16:19:22.845Z,100783.13
2023-01-22T16:21:52.415Z,100775.44
2023-01-22T16:24:20.537Z,100762.47
2023-01-22T16:26:48.138Z,100751.00
2023-01-22T16:29:16.366Z,100754.75
2023-01-22T16:31:44.151Z,100757.13
2023-01-22T16:34:19.725Z,100758.69
2023-01-22T16:36:48.868Z,100770.72
2023-01-22T16:39:21.966Z,100775.75
2023-01-22T16:41:51.883Z,100782.13
2023-01-22T16:44:27.371Z,100783.72
2023-01-22T16:46:57.857Z,100776.25
2023-01-22T16:49:32.491Z,100777.81
2023-01-22T16:52:21.080Z,100771.50
2023-01-22T16:54:51.144Z,100773.66
2023-01-22T16:57:20.529Z,100767.84
2023-01-22T16:59:54.686Z,100768.34
2023-01-22T17:02:26.923Z,100756.91
2023-01-22T17:04:57.259Z,100747.56
2023-01-22T17:07:33.724Z,100726.28
2023-01-22T17:10:03.124Z,100727.38
2023-01-22T17:12:31.644Z,100720.63
2023-01-22T17:15:00.133Z,100726.50
2023-01-22T17:17:28.848Z,100726.28
2023-01-22T17:19:57.116Z,100726.28
2023-01-22T17:22:25.595Z,100732.38
2023-01-22T17:24:55.412Z,100729.44
2023-01-22T17:27:25.818Z,100738.75
2023-01-22T17:29:54.035Z,100727.63
2023-01-22T17:32:25.545Z,100732.94
2023-01-22T17:34:56.767Z,100734.47
2023-01-22T17:37:27.661Z,100723.78
2023-01-22T17:40:04.443Z,100739.16
2023-01-22T17:42:32.395Z,100751.91
2023-01-22T17:45:00.353Z,100769.41
2023-01-22T17:47:28.368Z,100782.78
2023-01-22T17:49:56.352Z,100792.91
2023-01-22T17:52:23.965Z,100785.47
2023-01-22T17:54:53.477Z,100786.81
2023-01-22T17:57:21.242Z,100777.00
2023-01-22T17:59:49.512Z,100773.31
2023-01-22T18:02:17.163Z,100778.41
2023-01-22T18:04:46.670Z,100776.28
2023-01-22T18:07:14.371Z,100779.94
2023-01-22T18:09:46.595Z,100783.38
2023-01-22T18:12:43.795Z,100792.91
2023-01-22T18:15:15.455Z,100787.03
2023-01-22T18:17:47.965Z,100786.16
2023-01-22T18:20:17.489Z,100769.91
2023-01-22T18:22:45.133Z,100771.50
2023-01-22T18:25:13.020Z,100780.53
2023-01-22T18:27:40.830Z,100771.28
2023-01-22T18:30:11.807Z,100760.44
2023-01-22T18:32:40.082Z,100756.69
2023-01-22T18:35:08.865Z,100761.00
2023-01-22T18:37:38.100Z,100774.06
2023-01-22T18:40:06.957Z,100777.50
2023-01-22T18:42:34.587Z,100772.44
2023-01-22T18:45:04.281Z,100777.19
2023-01-22T18:47:34.702Z,100766.75
2023-01-22T18:50:02.557Z,100757.91
2023-01-22T18:52:30.031Z,100762.38
2023-01-22T18:54:58.173Z,100762.38
2023-01-22T18:57:47.438Z,100766.59
2023-01-22T19:00:15.618Z,100768.78
2023-01-22T19:02:43.383Z,100771.22
2023-01-22T19:05:11.375Z,100778.63
2023-01-22T19:07:39.029Z,100774.59
2023-01-22T19:10:08.769Z,100776.19
2023-01-22T19:12:36.211Z,100776.19
2023-01-22T19:15:04.383Z,100786.31
2023-01-22T19:17:31.939Z,100791.31
2023-01-22T19:20:01.492Z,100790.75
2023-01-22T19:22:30.143Z,100784.38
2023-01-22T19:24:58.115Z,100776.31
2023-01-22T19:27:25.703Z,100780.84
2023-01-22T19:29:54.119Z,100789.31
2023-01-22T19:32:27.821Z,100790.09
2023-01-22T19:34:56.452Z,100794.66
2023-01-22T19:37:25.255Z,100801.75
2023-01-22T19:39:53.375Z,100806.28
2023-01-22T19:42:20.946Z,100802.63
2023-01-22T19:44:48.801Z,100805.28
2023-01-22T19:47:17.595Z,100797.81
2023-01-22T19:49:45.722Z,100797.22
2023-01-22T19:52:16.476Z,100793.47
2023-01-22T19:54:47.955Z,100794.84
2023-01-22T19:57:15.920Z,100815.34
2023-01-22T19:59:43.991Z,100809.44
2023-01-22T20:02:15.216Z,100808.38
2023-01-22T20:04:43.340Z,100803.25
2023-01-22T20:07:11.162Z,100807.16
2023-01-22T20:09:39.063Z,100805.28
2023-01-22T20:12:08.757Z,100804.41
2023-01-22T20:14:41.370Z,100805.75
2023-01-22T20:17:09.514Z,100800.22
2023-01-22T20:19:39.465Z,100806.13
2023-01-22T20:22:07.346Z,100800.22
2023-01-22T20:24:37.538Z,100792.75
2023-01-22T20:27:05.043Z,100782.88
2023-01-22T20:29:33.013Z,100769.38
2023-01-22T20:32:00.790Z,100767.31
2023-01-22T20:34:28.767Z,100764.72
2023-01-22T20:36:57.053Z,100772.13
2023-01-22T20:39:25.426Z,100765.72
2023-01-22T20:41:54.858Z,100762.00
2023-01-22T20:44:23.173Z,100768.88
2023-01-22T20:46:51.601Z,100775.78
2023-01-22T20:49:39.731Z,100767.53
2023-01-22T20:52:07.758Z,100760.31
2023-01-22T20:54:42.810Z,100763.75
2023-01-22T20:57:19.712Z,100764.06
2023-01-22T20:59:48.039Z,100768.59
2023-01-22T21:02:18.113Z,100769.44
2023-01-22T21:04:50.835Z,100767.09
2023-01-22T21:07:20.470Z,100768.19
2023-01-22T21:09:50.062Z,100774.78
2023-01-22T21:12:17.815Z,100779.53
2023-01-22T21:14:46.298Z,100773.63
2023-01-22T21:17:13.940Z,100765.06
2023-01-22T21:19:44.169Z,100772.47
2023-01-22T21:22:11.944Z,100776.22
2023-01-22T21:24:40.036Z,100772.25
2023-01-22T21:27:07.610Z,100773.63
2023-01-22T21:29:35.779Z,100768.31
2023-01-22T21:32:03.624Z,100761.91
2023-01-22T21:34:33.496Z,100758.44
2023-01-22T21:37:01.708Z,100758.16
2023-01-22T21:39:30.755Z,100754.72
2023-01-22T21:42:18.108Z,100763.19
2023-01-22T21:45:05.286Z,100763.97
2023-01-22T21:47:33.165Z,100771.47
2023-01-22T21:50:01.055Z,100761.84
2023-01-22T21:52:28.923Z,100757.28
2023-01-22T21:54:57.044Z,100764.41
2023-01-22T21:57:45.377Z,100762.81
2023-01-22T22:00:25.267Z,100765.97
2023-01-22T22:03:07.454Z,100762.03
2023-01-22T22:06:13.713Z,100771.38
2023-01-22T22:08:43.646Z,100749.03
2023-01-22T22:11:14.164Z,100754.13
2023-01-22T22:13:45.799Z,100743.28
2023-01-22T22:16:20.582Z,100756.69
2023-01-22T22:18:48.895Z,100751.13
2023-01-22T22:21:39.969Z,100756.44
2023-01-22T22:24:10.792Z,100767.09
2023-01-22T22:26:41.929Z,100775.38
2023-01-22T22:29:10.800Z,100777.72
2023-01-22T22:31:40.447Z,100766.28
2023-01-22T22:34:08.057Z,100767.88
2023-01-22T22:36:36.263Z,100760.47
2023-01-22T22:39:07.779Z,100757.25
2023-01-22T22:41:40.058Z,100755.88
2023-01-22T22:44:13.787Z,100763.28
2023-01-22T22:46:48.498Z,100764.56
2023-01-22T22:49:17.055Z,100748.63
2023-01-22T22:51:46.432Z,100745.94
2023-01-22T22:54:18.850Z,100734.56
2023-01-22T22:56:48.740Z,100738.63
2023-01-22T22:59:19.742Z,100730.66
2023-01-22T23:01:49.703Z,100737.25
2023-01-22T23:04:17.638Z,100748.63
2023-01-22T23:06:46.755Z,100740.63
2023-01-22T23:09:20.757Z,100743.78
2023-01-22T23:11:52.049Z,100734.22
2023-01-22T23:14:19.958Z,100730.97
2023-01-22T23:16:48.482Z,100741.03
2023-01-22T23:19:20.519Z,100737.81
2023-01-22T23:21:56.210Z,100722.91
2023-01-22T23:24:24.098Z,100714.13
2023-01-22T23:26:52.682Z,100710.56
2023-01-22T23:29:24.192Z,100716.50
2023-01-22T23:31:53.028Z,100712.53
2023-01-22T23:34:22.783Z,100703.78
2023-01-22T23:36:51.680Z,100710.19
2023-01-22T23:39:21.465Z,100707.50
2023-01-22T23:41:49.589Z,100702.47
2023-01-22T23:44:17.522Z,100691.63
2023-01-22T23:46:45.789Z,100692.03
2023-01-22T23:49:13.720Z,100690.50
2023-01-22T23:51:43.685Z,100683.69
2023-01-22T23:54:11.233Z,100677.97
2023-01-22T23:56:39.107Z,100699.94
2023-01-22T23:59:06.917Z,100688.78
